sensor_id;sensor_type;location;lat;lon;timestamp;P1;durP1;ratioP1;P2;durP2;ratioP2
20251;SDS011;10284;58.364;15.550;2023-05-10T00:00:52;8.20;;;4.70;;
20251;SDS011;10284;58.364;15.550;2023-05-10T00:03:18;9.00;;;4.80;;
20251;SDS011;10284;58.364;15.550;2023-05-10T00:05:43;9.10;;;4.80;;
20251;SDS011;10284;58.364;15.550;2023-05-10T00:08:09;7.38;;;4.63;;
20251;SDS011;10284;58.364;15.550;2023-05-10T00:10:34;5.82;;;4.32;;
20251;SDS011;10284;58.364;15.550;2023-05-10T00:13:00;6.82;;;4.63;;
20251;SDS011;10284;58.364;15.550;2023-05-10T00:15:25;9.40;;;4.90;;
20251;SDS011;10284;58.364;15.550;2023-05-10T00:17:51;7.53;;;4.90;;
20251;SDS011;10284;58.364;15.550;2023-05-10T00:20:16;12.70;;;5.10;;
20251;SDS011;10284;58.364;15.550;2023-05-10T00:22:41;7.32;;;4.85;;
20251;SDS011;10284;58.364;15.550;2023-05-10T00:25:07;6.45;;;4.95;;
20251;SDS011;10284;58.364;15.550;2023-05-10T00:27:33;5.65;;;4.90;;
20251;SDS011;10284;58.364;15.550;2023-05-10T00:29:59;11.65;;;5.50;;
20251;SDS011;10284;58.364;15.550;2023-05-10T00:32:24;8.75;;;5.57;;
20251;SDS011;10284;58.364;15.550;2023-05-10T00:34:50;7.30;;;4.88;;
20251;SDS011;10284;58.364;15.550;2023-05-10T00:37:15;8.05;;;5.35;;
20251;SDS011;10284;58.364;15.550;2023-05-10T00:39:41;8.75;;;5.63;;
20251;SDS011;10284;58.364;15.550;2023-05-10T00:42:06;8.75;;;5.65;;
20251;SDS011;10284;58.364;15.550;2023-05-10T00:44:32;8.23;;;5.68;;
20251;SDS011;10284;58.364;15.550;2023-05-10T00:46:57;8.48;;;5.43;;
20251;SDS011;10284;58.364;15.550;2023-05-10T00:49:23;7.78;;;4.90;;
20251;SDS011;10284;58.364;15.550;2023-05-10T00:51:49;8.50;;;5.25;;
20251;SDS011;10284;58.364;15.550;2023-05-10T00:54:15;6.60;;;5.10;;
20251;SDS011;10284;58.364;15.550;2023-05-10T00:56:41;8.90;;;5.95;;
20251;SDS011;10284;58.364;15.550;2023-05-10T00:59:09;10.43;;;6.13;;
20251;SDS011;10284;58.364;15.550;2023-05-10T01:01:35;8.77;;;5.47;;
20251;SDS011;10284;58.364;15.550;2023-05-10T01:04:01;8.05;;;5.88;;
20251;SDS011;10284;58.364;15.550;2023-05-10T01:06:26;13.00;;;6.15;;
20251;SDS011;10284;58.364;15.550;2023-05-10T01:08:52;9.75;;;5.88;;
20251;SDS011;10284;58.364;15.550;2023-05-10T01:11:18;13.52;;;6.20;;
20251;SDS011;10284;58.364;15.550;2023-05-10T01:13:43;8.30;;;5.53;;
20251;SDS011;10284;58.364;15.550;2023-05-10T01:16:12;11.30;;;6.25;;
20251;SDS011;10284;58.364;15.550;2023-05-10T01:18:38;11.88;;;6.22;;
20251;SDS011;10284;58.364;15.550;2023-05-10T01:21:19;11.88;;;6.25;;
20251;SDS011;10284;58.364;15.550;2023-05-10T01:24:04;11.38;;;6.10;;
20251;SDS011;10284;58.364;15.550;2023-05-10T01:35:21;8.25;;;5.57;;
20251;SDS011;10284;58.364;15.550;2023-05-10T01:37:59;9.07;;;5.60;;
20251;SDS011;10284;58.364;15.550;2023-05-10T01:40:26;8.43;;;5.83;;
20251;SDS011;10284;58.364;15.550;2023-05-10T01:43:06;10.38;;;6.50;;
20251;SDS011;10284;58.364;15.550;2023-05-10T01:45:37;10.60;;;6.03;;
20251;SDS011;10284;58.364;15.550;2023-05-10T01:48:08;8.70;;;6.10;;
20251;SDS011;10284;58.364;15.550;2023-05-10T01:50:36;11.98;;;6.47;;
20251;SDS011;10284;58.364;15.550;2023-05-10T01:53:03;8.63;;;6.25;;
20251;SDS011;10284;58.364;15.550;2023-05-10T01:55:32;8.90;;;6.22;;
20251;SDS011;10284;58.364;15.550;2023-05-10T01:58:09;8.52;;;6.60;;
20251;SDS011;10284;58.364;15.550;2023-05-10T02:00:35;8.45;;;6.40;;
20251;SDS011;10284;58.364;15.550;2023-05-10T02:03:04;8.05;;;6.35;;
20251;SDS011;10284;58.364;15.550;2023-05-10T02:05:31;11.57;;;6.65;;
20251;SDS011;10284;58.364;15.550;2023-05-10T02:07:57;9.50;;;6.28;;
20251;SDS011;10284;58.364;15.550;2023-05-10T02:10:23;11.80;;;6.65;;
20251;SDS011;10284;58.364;15.550;2023-05-10T02:12:48;9.35;;;6.93;;
20251;SDS011;10284;58.364;15.550;2023-05-10T02:15:18;14.23;;;6.85;;
20251;SDS011;10284;58.364;15.550;2023-05-10T02:17:45;11.15;;;6.93;;
20251;SDS011;10284;58.364;15.550;2023-05-10T02:20:11;14.45;;;7.13;;
20251;SDS011;10284;58.364;15.550;2023-05-10T02:22:37;11.75;;;7.60;;
20251;SDS011;10284;58.364;15.550;2023-05-10T02:25:04;9.93;;;6.82;;
20251;SDS011;10284;58.364;15.550;2023-05-10T02:27:30;9.15;;;6.60;;
20251;SDS011;10284;58.364;15.550;2023-05-10T02:29:56;12.73;;;7.28;;
20251;SDS011;10284;58.364;15.550;2023-05-10T02:32:23;11.65;;;7.18;;
20251;SDS011;10284;58.364;15.550;2023-05-10T02:34:50;10.77;;;7.38;;
20251;SDS011;10284;58.364;15.550;2023-05-10T02:37:17;11.18;;;7.13;;
20251;SDS011;10284;58.364;15.550;2023-05-10T02:39:44;9.85;;;6.75;;
20251;SDS011;10284;58.364;15.550;2023-05-10T02:42:15;10.13;;;7.15;;
20251;SDS011;10284;58.364;15.550;2023-05-10T02:44:43;9.35;;;6.85;;
20251;SDS011;10284;58.364;15.550;2023-05-10T02:47:08;13.65;;;7.78;;
20251;SDS011;10284;58.364;15.550;2023-05-10T02:49:33;10.55;;;6.85;;
20251;SDS011;10284;58.364;15.550;2023-05-10T02:52:00;10.10;;;7.47;;
20251;SDS011;10284;58.364;15.550;2023-05-10T02:54:29;13.77;;;7.82;;
20251;SDS011;10284;58.364;15.550;2023-05-10T02:56:59;10.13;;;7.53;;
20251;SDS011;10284;58.364;15.550;2023-05-10T02:59:26;10.07;;;6.88;;
20251;SDS011;10284;58.364;15.550;2023-05-10T03:01:52;10.25;;;7.25;;
20251;SDS011;10284;58.364;15.550;2023-05-10T03:04:17;11.65;;;7.20;;
20251;SDS011;10284;58.364;15.550;2023-05-10T03:06:43;10.02;;;7.32;;
20251;SDS011;10284;58.364;15.550;2023-05-10T03:09:08;11.30;;;7.20;;
20251;SDS011;10284;58.364;15.550;2023-05-10T03:11:39;14.23;;;6.97;;
20251;SDS011;10284;58.364;15.550;2023-05-10T03:17:02;11.00;;;6.85;;
20251;SDS011;10284;58.364;15.550;2023-05-10T03:19:47;11.15;;;6.45;;
20251;SDS011;10284;58.364;15.550;2023-05-10T03:22:27;6.68;;;5.50;;
20251;SDS011;10284;58.364;15.550;2023-05-10T03:25:00;9.43;;;6.43;;
20251;SDS011;10284;58.364;15.550;2023-05-10T03:27:29;10.95;;;6.43;;
20251;SDS011;10284;58.364;15.550;2023-05-10T03:29:55;10.75;;;6.43;;
20251;SDS011;10284;58.364;15.550;2023-05-10T03:32:21;10.25;;;6.18;;
20251;SDS011;10284;58.364;15.550;2023-05-10T03:34:47;8.18;;;6.38;;
20251;SDS011;10284;58.364;15.550;2023-05-10T03:37:12;11.43;;;6.47;;
20251;SDS011;10284;58.364;15.550;2023-05-10T03:39:38;9.20;;;5.72;;
20251;SDS011;10284;58.364;15.550;2023-05-10T03:42:03;9.15;;;6.07;;
20251;SDS011;10284;58.364;15.550;2023-05-10T03:44:29;9.20;;;5.90;;
20251;SDS011;10284;58.364;15.550;2023-05-10T03:46:54;8.38;;;5.70;;
20251;SDS011;10284;58.364;15.550;2023-05-10T03:49:21;7.88;;;6.28;;
20251;SDS011;10284;58.364;15.550;2023-05-10T03:51:47;9.25;;;5.90;;
20251;SDS011;10284;58.364;15.550;2023-05-10T03:54:13;10.77;;;6.00;;
20251;SDS011;10284;58.364;15.550;2023-05-10T03:56:38;9.18;;;6.22;;
20251;SDS011;10284;58.364;15.550;2023-05-10T03:59:03;9.35;;;6.00;;
20251;SDS011;10284;58.364;15.550;2023-05-10T04:01:32;8.68;;;6.00;;
20251;SDS011;10284;58.364;15.550;2023-05-10T04:03:58;11.15;;;5.80;;
20251;SDS011;10284;58.364;15.550;2023-05-10T04:06:24;8.60;;;5.63;;
20251;SDS011;10284;58.364;15.550;2023-05-10T04:08:49;8.88;;;6.20;;
20251;SDS011;10284;58.364;15.550;2023-05-10T04:11:14;11.45;;;5.82;;
20251;SDS011;10284;58.364;15.550;2023-05-10T04:13:40;9.02;;;5.80;;
20251;SDS011;10284;58.364;15.550;2023-05-10T04:16:06;7.47;;;6.15;;
20251;SDS011;10284;58.364;15.550;2023-05-10T04:18:31;11.07;;;6.18;;
20251;SDS011;10284;58.364;15.550;2023-05-10T04:20:57;9.13;;;6.18;;
20251;SDS011;10284;58.364;15.550;2023-05-10T04:23:22;8.77;;;5.65;;
20251;SDS011;10284;58.364;15.550;2023-05-10T04:25:48;11.27;;;6.25;;
20251;SDS011;10284;58.364;15.550;2023-05-10T04:28:13;12.95;;;5.45;;
20251;SDS011;10284;58.364;15.550;2023-05-10T04:30:39;9.50;;;5.75;;
20251;SDS011;10284;58.364;15.550;2023-05-10T04:33:05;10.07;;;5.60;;
20251;SDS011;10284;58.364;15.550;2023-05-10T04:35:31;10.10;;;5.78;;
20251;SDS011;10284;58.364;15.550;2023-05-10T04:37:56;7.95;;;5.30;;
20251;SDS011;10284;58.364;15.550;2023-05-10T04:40:21;7.55;;;5.60;;
20251;SDS011;10284;58.364;15.550;2023-05-10T04:42:47;9.02;;;5.72;;
20251;SDS011;10284;58.364;15.550;2023-05-10T04:45:12;8.98;;;5.50;;
20251;SDS011;10284;58.364;15.550;2023-05-10T04:47:39;8.35;;;5.22;;
20251;SDS011;10284;58.364;15.550;2023-05-10T04:50:05;8.05;;;5.20;;
20251;SDS011;10284;58.364;15.550;2023-05-10T04:52:31;8.23;;;5.55;;
20251;SDS011;10284;58.364;15.550;2023-05-10T04:54:56;11.80;;;5.25;;
20251;SDS011;10284;58.364;15.550;2023-05-10T04:57:22;7.80;;;5.43;;
20251;SDS011;10284;58.364;15.550;2023-05-10T04:59:47;8.32;;;5.47;;
20251;SDS011;10284;58.364;15.550;2023-05-10T05:02:13;8.82;;;5.55;;
20251;SDS011;10284;58.364;15.550;2023-05-10T05:04:38;6.90;;;5.22;;
20251;SDS011;10284;58.364;15.550;2023-05-10T05:07:04;8.73;;;5.43;;
20251;SDS011;10284;58.364;15.550;2023-05-10T05:09:29;8.38;;;4.63;;
20251;SDS011;10284;58.364;15.550;2023-05-10T05:11:57;9.05;;;5.13;;
20251;SDS011;10284;58.364;15.550;2023-05-10T05:14:22;10.98;;;4.85;;
20251;SDS011;10284;58.364;15.550;2023-05-10T05:16:50;8.57;;;5.50;;
20251;SDS011;10284;58.364;15.550;2023-05-10T05:19:16;10.60;;;4.88;;
20251;SDS011;10284;58.364;15.550;2023-05-10T05:21:41;6.78;;;4.72;;
20251;SDS011;10284;58.364;15.550;2023-05-10T05:24:07;7.18;;;4.88;;
20251;SDS011;10284;58.364;15.550;2023-05-10T05:26:33;7.93;;;4.80;;
20251;SDS011;10284;58.364;15.550;2023-05-10T05:28:59;7.97;;;4.32;;
20251;SDS011;10284;58.364;15.550;2023-05-10T05:31:24;8.82;;;4.47;;
20251;SDS011;10284;58.364;15.550;2023-05-10T05:33:50;7.72;;;4.70;;
20251;SDS011;10284;58.364;15.550;2023-05-10T05:36:15;7.55;;;4.75;;
20251;SDS011;10284;58.364;15.550;2023-05-10T05:38:40;6.28;;;4.55;;
20251;SDS011;10284;58.364;15.550;2023-05-10T05:41:06;7.32;;;4.82;;
20251;SDS011;10284;58.364;15.550;2023-05-10T05:43:31;9.88;;;5.03;;
20251;SDS011;10284;58.364;15.550;2023-05-10T05:45:57;11.52;;;4.93;;
20251;SDS011;10284;58.364;15.550;2023-05-10T05:48:23;6.93;;;4.47;;
20251;SDS011;10284;58.364;15.550;2023-05-10T05:50:48;7.25;;;4.40;;
20251;SDS011;10284;58.364;15.550;2023-05-10T05:53:14;8.00;;;4.43;;
20251;SDS011;10284;58.364;15.550;2023-05-10T05:55:39;4.68;;;3.90;;
20251;SDS011;10284;58.364;15.550;2023-05-10T05:58:05;5.20;;;3.92;;
20251;SDS011;10284;58.364;15.550;2023-05-10T06:00:30;5.28;;;4.10;;
20251;SDS011;10284;58.364;15.550;2023-05-10T06:02:56;9.90;;;4.40;;
20251;SDS011;10284;58.364;15.550;2023-05-10T06:05:22;6.00;;;3.83;;
20251;SDS011;10284;58.364;15.550;2023-05-10T06:07:47;12.02;;;4.13;;
20251;SDS011;10284;58.364;15.550;2023-05-10T06:10:12;8.43;;;4.32;;
20251;SDS011;10284;58.364;15.550;2023-05-10T06:12:38;7.18;;;4.35;;
20251;SDS011;10284;58.364;15.550;2023-05-10T06:15:04;6.82;;;4.60;;
20251;SDS011;10284;58.364;15.550;2023-05-10T06:17:30;6.88;;;4.47;;
20251;SDS011;10284;58.364;15.550;2023-05-10T06:19:55;6.38;;;4.53;;
20251;SDS011;10284;58.364;15.550;2023-05-10T06:22:21;9.68;;;4.13;;
20251;SDS011;10284;58.364;15.550;2023-05-10T06:24:49;5.28;;;3.75;;
20251;SDS011;10284;58.364;15.550;2023-05-10T06:27:15;6.18;;;3.80;;
20251;SDS011;10284;58.364;15.550;2023-05-10T06:29:41;4.63;;;3.90;;
20251;SDS011;10284;58.364;15.550;2023-05-10T06:32:06;5.80;;;3.70;;
20251;SDS011;10284;58.364;15.550;2023-05-10T06:34:31;5.72;;;3.85;;
20251;SDS011;10284;58.364;15.550;2023-05-10T06:36:57;5.68;;;3.65;;
20251;SDS011;10284;58.364;15.550;2023-05-10T06:39:22;4.57;;;3.60;;
20251;SDS011;10284;58.364;15.550;2023-05-10T06:41:48;9.05;;;3.22;;
20251;SDS011;10284;58.364;15.550;2023-05-10T06:44:13;4.65;;;3.45;;
20251;SDS011;10284;58.364;15.550;2023-05-10T06:46:39;6.28;;;3.60;;
20251;SDS011;10284;58.364;15.550;2023-05-10T06:49:04;4.72;;;3.25;;
20251;SDS011;10284;58.364;15.550;2023-05-10T06:51:30;3.70;;;3.40;;
20251;SDS011;10284;58.364;15.550;2023-05-10T06:53:56;5.22;;;3.25;;
20251;SDS011;10284;58.364;15.550;2023-05-10T06:56:21;6.85;;;3.25;;
20251;SDS011;10284;58.364;15.550;2023-05-10T06:58:49;7.50;;;3.58;;
20251;SDS011;10284;58.364;15.550;2023-05-10T07:01:15;5.88;;;3.17;;
20251;SDS011;10284;58.364;15.550;2023-05-10T07:03:40;5.80;;;3.22;;
20251;SDS011;10284;58.364;15.550;2023-05-10T07:06:06;5.65;;;3.53;;
20251;SDS011;10284;58.364;15.550;2023-05-10T07:08:32;6.03;;;3.17;;
20251;SDS011;10284;58.364;15.550;2023-05-10T07:11:02;5.07;;;3.00;;
20251;SDS011;10284;58.364;15.550;2023-05-10T07:13:29;7.35;;;3.25;;
20251;SDS011;10284;58.364;15.550;2023-05-10T07:15:55;7.10;;;3.10;;
20251;SDS011;10284;58.364;15.550;2023-05-10T07:18:21;5.25;;;3.03;;
20251;SDS011;10284;58.364;15.550;2023-05-10T07:20:46;3.72;;;3.05;;
20251;SDS011;10284;58.364;15.550;2023-05-10T07:23:11;5.13;;;3.22;;
20251;SDS011;10284;58.364;15.550;2023-05-10T07:25:37;7.40;;;3.10;;
20251;SDS011;10284;58.364;15.550;2023-05-10T07:28:03;8.77;;;3.17;;
20251;SDS011;10284;58.364;15.550;2023-05-10T07:30:28;4.75;;;3.40;;
20251;SDS011;10284;58.364;15.550;2023-05-10T07:32:53;3.28;;;2.85;;
20251;SDS011;10284;58.364;15.550;2023-05-10T07:35:19;5.68;;;3.53;;
20251;SDS011;10284;58.364;15.550;2023-05-10T07:37:44;7.03;;;2.85;;
20251;SDS011;10284;58.364;15.550;2023-05-10T07:40:10;5.28;;;3.28;;
20251;SDS011;10284;58.364;15.550;2023-05-10T07:42:35;4.13;;;3.17;;
20251;SDS011;10284;58.364;15.550;2023-05-10T07:45:01;3.38;;;2.58;;
20251;SDS011;10284;58.364;15.550;2023-05-10T07:47:26;5.22;;;3.03;;
20251;SDS011;10284;58.364;15.550;2023-05-10T07:49:52;8.00;;;3.33;;
20251;SDS011;10284;58.364;15.550;2023-05-10T07:52:17;4.18;;;2.92;;
20251;SDS011;10284;58.364;15.550;2023-05-10T07:54:43;6.43;;;3.33;;
20251;SDS011;10284;58.364;15.550;2023-05-10T07:57:09;6.13;;;2.95;;
20251;SDS011;10284;58.364;15.550;2023-05-10T07:59:34;5.75;;;3.10;;
20251;SDS011;10284;58.364;15.550;2023-05-10T08:02:00;3.63;;;3.17;;
20251;SDS011;10284;58.364;15.550;2023-05-10T08:04:26;5.40;;;3.42;;
20251;SDS011;10284;58.364;15.550;2023-05-10T08:06:51;8.73;;;3.33;;
20251;SDS011;10284;58.364;15.550;2023-05-10T08:09:17;3.17;;;2.60;;
20251;SDS011;10284;58.364;15.550;2023-05-10T08:11:42;3.85;;;2.67;;
20251;SDS011;10284;58.364;15.550;2023-05-10T08:14:08;6.45;;;2.70;;
20251;SDS011;10284;58.364;15.550;2023-05-10T08:16:33;5.70;;;2.70;;
20251;SDS011;10284;58.364;15.550;2023-05-10T08:18:59;4.53;;;2.72;;
20251;SDS011;10284;58.364;15.550;2023-05-10T08:21:25;6.13;;;2.90;;
20251;SDS011;10284;58.364;15.550;2023-05-10T08:23:51;5.13;;;2.78;;
20251;SDS011;10284;58.364;15.550;2023-05-10T08:26:16;4.13;;;2.92;;
20251;SDS011;10284;58.364;15.550;2023-05-10T08:28:42;7.72;;;2.92;;
20251;SDS011;10284;58.364;15.550;2023-05-10T08:31:07;5.68;;;3.15;;
20251;SDS011;10284;58.364;15.550;2023-05-10T08:33:33;7.88;;;3.28;;
20251;SDS011;10284;58.364;15.550;2023-05-10T08:35:58;5.55;;;3.08;;
20251;SDS011;10284;58.364;15.550;2023-05-10T08:38:23;5.60;;;2.80;;
20251;SDS011;10284;58.364;15.550;2023-05-10T08:40:50;6.13;;;2.88;;
20251;SDS011;10284;58.364;15.550;2023-05-10T08:43:21;6.07;;;3.10;;
20251;SDS011;10284;58.364;15.550;2023-05-10T08:45:46;4.43;;;3.05;;
20251;SDS011;10284;58.364;15.550;2023-05-10T08:48:13;4.82;;;2.80;;
20251;SDS011;10284;58.364;15.550;2023-05-10T08:50:40;6.55;;;3.10;;
20251;SDS011;10284;58.364;15.550;2023-05-10T08:53:08;6.10;;;2.78;;
20251;SDS011;10284;58.364;15.550;2023-05-10T08:55:36;3.25;;;2.50;;
20251;SDS011;10284;58.364;15.550;2023-05-10T08:58:03;4.20;;;2.63;;
20251;SDS011;10284;58.364;15.550;2023-05-10T09:00:29;8.98;;;3.00;;
20251;SDS011;10284;58.364;15.550;2023-05-10T09:02:55;5.80;;;2.85;;
20251;SDS011;10284;58.364;15.550;2023-05-10T09:05:22;6.07;;;2.67;;
20251;SDS011;10284;58.364;15.550;2023-05-10T09:07:48;3.15;;;2.25;;
20251;SDS011;10284;58.364;15.550;2023-05-10T09:10:13;3.10;;;2.20;;
20251;SDS011;10284;58.364;15.550;2023-05-10T09:12:40;7.15;;;2.58;;
20251;SDS011;10284;58.364;15.550;2023-05-10T09:15:05;5.22;;;2.30;;
20251;SDS011;10284;58.364;15.550;2023-05-10T09:17:32;6.35;;;2.60;;
20251;SDS011;10284;58.364;15.550;2023-05-10T09:19:59;2.70;;;2.40;;
20251;SDS011;10284;58.364;15.550;2023-05-10T09:22:29;4.68;;;2.70;;
20251;SDS011;10284;58.364;15.550;2023-05-10T09:25:09;5.43;;;2.67;;
20251;SDS011;10284;58.364;15.550;2023-05-10T09:27:39;2.97;;;2.20;;
20251;SDS011;10284;58.364;15.550;2023-05-10T09:30:05;6.60;;;2.80;;
20251;SDS011;10284;58.364;15.550;2023-05-10T09:32:39;6.70;;;2.55;;
20251;SDS011;10284;58.364;15.550;2023-05-10T09:35:06;5.15;;;2.95;;
20251;SDS011;10284;58.364;15.550;2023-05-10T09:37:36;3.63;;;2.58;;
20251;SDS011;10284;58.364;15.550;2023-05-10T09:40:04;5.43;;;2.58;;
20251;SDS011;10284;58.364;15.550;2023-05-10T09:42:30;3.90;;;2.90;;
20251;SDS011;10284;58.364;15.550;2023-05-10T09:44:59;6.38;;;2.78;;
20251;SDS011;10284;58.364;15.550;2023-05-10T09:47:34;5.20;;;2.63;;
20251;SDS011;10284;58.364;15.550;2023-05-10T09:50:01;4.90;;;2.53;;
20251;SDS011;10284;58.364;15.550;2023-05-10T09:52:29;3.13;;;2.53;;
20251;SDS011;10284;58.364;15.550;2023-05-10T09:55:13;4.43;;;2.60;;
20251;SDS011;10284;58.364;15.550;2023-05-10T09:57:38;4.20;;;2.70;;
20251;SDS011;10284;58.364;15.550;2023-05-10T10:00:04;10.63;;;3.15;;
20251;SDS011;10284;58.364;15.550;2023-05-10T10:02:30;4.40;;;2.67;;
20251;SDS011;10284;58.364;15.550;2023-05-10T10:04:56;4.00;;;2.60;;
20251;SDS011;10284;58.364;15.550;2023-05-10T10:07:22;6.45;;;3.20;;
20251;SDS011;10284;58.364;15.550;2023-05-10T10:09:49;6.07;;;2.95;;
20251;SDS011;10284;58.364;15.550;2023-05-10T10:12:15;4.38;;;2.45;;
20251;SDS011;10284;58.364;15.550;2023-05-10T10:14:40;4.90;;;2.80;;
20251;SDS011;10284;58.364;15.550;2023-05-10T10:17:06;7.15;;;2.55;;
20251;SDS011;10284;58.364;15.550;2023-05-10T10:19:32;6.07;;;2.40;;
20251;SDS011;10284;58.364;15.550;2023-05-10T10:21:59;3.70;;;2.42;;
20251;SDS011;10284;58.364;15.550;2023-05-10T10:24:25;4.05;;;2.50;;
20251;SDS011;10284;58.364;15.550;2023-05-10T10:26:52;5.65;;;2.80;;
20251;SDS011;10284;58.364;15.550;2023-05-10T10:29:36;6.03;;;2.85;;
20251;SDS011;10284;58.364;15.550;2023-05-10T10:34:51;5.80;;;2.80;;
20251;SDS011;10284;58.364;15.550;2023-05-10T10:37:17;5.75;;;2.83;;
20251;SDS011;10284;58.364;15.550;2023-05-10T10:39:42;4.70;;;2.72;;
20251;SDS011;10284;58.364;15.550;2023-05-10T10:42:07;8.43;;;2.58;;
20251;SDS011;10284;58.364;15.550;2023-05-10T10:44:34;8.30;;;3.25;;
20251;SDS011;10284;58.364;15.550;2023-05-10T10:54:51;4.35;;;2.67;;
20251;SDS011;10284;58.364;15.550;2023-05-10T11:03:19;5.50;;;2.92;;
20251;SDS011;10284;58.364;15.550;2023-05-10T11:08:14;3.78;;;2.60;;
20251;SDS011;10284;58.364;15.550;2023-05-10T11:10:53;6.80;;;2.85;;
20251;SDS011;10284;58.364;15.550;2023-05-10T11:13:34;6.65;;;2.92;;
20251;SDS011;10284;58.364;15.550;2023-05-10T11:16:10;4.38;;;2.63;;
20251;SDS011;10284;58.364;15.550;2023-05-10T11:18:41;3.47;;;2.95;;
20251;SDS011;10284;58.364;15.550;2023-05-10T11:21:18;6.18;;;3.10;;
20251;SDS011;10284;58.364;15.550;2023-05-10T11:26:21;3.88;;;2.97;;
20251;SDS011;10284;58.364;15.550;2023-05-10T11:28:51;5.25;;;2.70;;
20251;SDS011;10284;58.364;15.550;2023-05-10T11:31:19;5.93;;;3.53;;
20251;SDS011;10284;58.364;15.550;2023-05-10T11:33:49;6.05;;;3.10;;
20251;SDS011;10284;58.364;15.550;2023-05-10T11:36:16;4.50;;;2.63;;
20251;SDS011;10284;58.364;15.550;2023-05-10T11:38:42;6.72;;;2.80;;
20251;SDS011;10284;58.364;15.550;2023-05-10T11:41:11;3.65;;;2.83;;
20251;SDS011;10284;58.364;15.550;2023-05-10T11:43:38;3.97;;;3.08;;
20251;SDS011;10284;58.364;15.550;2023-05-10T11:46:11;7.55;;;2.88;;
20251;SDS011;10284;58.364;15.550;2023-05-10T11:48:40;5.38;;;3.10;;
20251;SDS011;10284;58.364;15.550;2023-05-10T11:51:09;6.63;;;2.80;;
20251;SDS011;10284;58.364;15.550;2023-05-10T11:53:35;10.73;;;2.95;;
20251;SDS011;10284;58.364;15.550;2023-05-10T11:56:08;18.23;;;3.38;;
20251;SDS011;10284;58.364;15.550;2023-05-10T11:58:35;3.30;;;2.80;;
20251;SDS011;10284;58.364;15.550;2023-05-10T12:01:02;6.13;;;2.63;;
20251;SDS011;10284;58.364;15.550;2023-05-10T12:03:28;5.00;;;3.10;;
20251;SDS011;10284;58.364;15.550;2023-05-10T12:05:54;4.47;;;3.03;;
20251;SDS011;10284;58.364;15.550;2023-05-10T12:08:30;5.50;;;2.85;;
20251;SDS011;10284;58.364;15.550;2023-05-10T12:11:06;6.45;;;3.00;;
20251;SDS011;10284;58.364;15.550;2023-05-10T12:13:32;4.22;;;2.92;;
20251;SDS011;10284;58.364;15.550;2023-05-10T12:16:12;10.93;;;3.15;;
20251;SDS011;10284;58.364;15.550;2023-05-10T12:18:41;3.72;;;2.70;;
20251;SDS011;10284;58.364;15.550;2023-05-10T12:21:09;5.63;;;3.20;;
20251;SDS011;10284;58.364;15.550;2023-05-10T12:23:35;4.65;;;3.10;;
20251;SDS011;10284;58.364;15.550;2023-05-10T12:26:02;6.75;;;3.00;;
20251;SDS011;10284;58.364;15.550;2023-05-10T12:28:29;2.78;;;2.42;;
20251;SDS011;10284;58.364;15.550;2023-05-10T12:30:55;4.15;;;2.92;;
20251;SDS011;10284;58.364;15.550;2023-05-10T12:33:22;2.90;;;2.60;;
20251;SDS011;10284;58.364;15.550;2023-05-10T12:35:48;3.63;;;2.65;;
20251;SDS011;10284;58.364;15.550;2023-05-10T12:38:25;3.15;;;2.70;;
20251;SDS011;10284;58.364;15.550;2023-05-10T12:41:02;3.97;;;2.80;;
20251;SDS011;10284;58.364;15.550;2023-05-10T12:43:31;5.57;;;3.10;;
20251;SDS011;10284;58.364;15.550;2023-05-10T12:45:58;5.35;;;2.75;;
20251;SDS011;10284;58.364;15.550;2023-05-10T12:48:23;3.50;;;2.78;;
20251;SDS011;10284;58.364;15.550;2023-05-10T12:50:49;7.22;;;2.88;;
20251;SDS011;10284;58.364;15.550;2023-05-10T12:53:14;6.78;;;3.10;;
20251;SDS011;10284;58.364;15.550;2023-05-10T12:55:43;6.00;;;2.90;;
20251;SDS011;10284;58.364;15.550;2023-05-10T12:58:09;5.60;;;2.78;;
20251;SDS011;10284;58.364;15.550;2023-05-10T13:00:34;6.05;;;2.53;;
20251;SDS011;10284;58.364;15.550;2023-05-10T13:03:00;4.43;;;2.75;;
20251;SDS011;10284;58.364;15.550;2023-05-10T13:05:25;5.88;;;2.60;;
20251;SDS011;10284;58.364;15.550;2023-05-10T13:07:51;3.00;;;2.70;;
20251;SDS011;10284;58.364;15.550;2023-05-10T13:10:16;6.95;;;2.60;;
20251;SDS011;10284;58.364;15.550;2023-05-10T13:12:42;4.57;;;2.38;;
20251;SDS011;10284;58.364;15.550;2023-05-10T13:15:07;5.50;;;2.58;;
20251;SDS011;10284;58.364;15.550;2023-05-10T13:17:33;3.65;;;2.55;;
20251;SDS011;10284;58.364;15.550;2023-05-10T13:19:58;3.33;;;2.75;;
20251;SDS011;10284;58.364;15.550;2023-05-10T13:22:24;6.70;;;2.85;;
20251;SDS011;10284;58.364;15.550;2023-05-10T13:24:49;6.35;;;2.70;;
20251;SDS011;10284;58.364;15.550;2023-05-10T13:27:15;5.70;;;2.83;;
20251;SDS011;10284;58.364;15.550;2023-05-10T13:29:40;4.53;;;2.58;;
20251;SDS011;10284;58.364;15.550;2023-05-10T13:32:06;2.90;;;2.60;;
20251;SDS011;10284;58.364;15.550;2023-05-10T13:34:31;5.30;;;2.85;;
20251;SDS011;10284;58.364;15.550;2023-05-10T13:36:56;7.00;;;2.80;;
20251;SDS011;10284;58.364;15.550;2023-05-10T13:39:22;3.17;;;2.50;;
20251;SDS011;10284;58.364;15.550;2023-05-10T13:41:48;6.35;;;2.85;;
20251;SDS011;10284;58.364;15.550;2023-05-10T13:44:14;7.05;;;3.25;;
20251;SDS011;10284;58.364;15.550;2023-05-10T13:46:40;6.72;;;2.80;;
20251;SDS011;10284;58.364;15.550;2023-05-10T13:49:07;4.70;;;2.92;;
20251;SDS011;10284;58.364;15.550;2023-05-10T13:51:33;3.33;;;2.67;;
20251;SDS011;10284;58.364;15.550;2023-05-10T13:53:59;5.22;;;2.80;;
20251;SDS011;10284;58.364;15.550;2023-05-10T13:56:24;8.65;;;2.78;;
20251;SDS011;10284;58.364;15.550;2023-05-10T13:58:50;4.10;;;2.83;;
20251;SDS011;10284;58.364;15.550;2023-05-10T14:01:16;6.53;;;3.00;;
20251;SDS011;10284;58.364;15.550;2023-05-10T14:03:41;4.97;;;2.70;;
20251;SDS011;10284;58.364;15.550;2023-05-10T14:06:07;3.28;;;2.67;;
20251;SDS011;10284;58.364;15.550;2023-05-10T14:08:33;5.32;;;2.80;;
20251;SDS011;10284;58.364;15.550;2023-05-10T14:10:59;5.60;;;2.70;;
20251;SDS011;10284;58.364;15.550;2023-05-10T14:13:25;7.53;;;3.00;;
20251;SDS011;10284;58.364;15.550;2023-05-10T14:15:50;5.07;;;2.60;;
20251;SDS011;10284;58.364;15.550;2023-05-10T14:18:16;8.35;;;3.65;;
20251;SDS011;10284;58.364;15.550;2023-05-10T14:20:41;4.93;;;2.72;;
20251;SDS011;10284;58.364;15.550;2023-05-10T14:23:07;5.68;;;2.75;;
20251;SDS011;10284;58.364;15.550;2023-05-10T14:25:32;4.25;;;2.65;;
20251;SDS011;10284;58.364;15.550;2023-05-10T14:27:58;6.35;;;3.15;;
20251;SDS011;10284;58.364;15.550;2023-05-10T14:30:23;6.55;;;2.80;;
20251;SDS011;10284;58.364;15.550;2023-05-10T14:32:49;5.10;;;2.60;;
20251;SDS011;10284;58.364;15.550;2023-05-10T14:35:14;4.18;;;2.70;;
20251;SDS011;10284;58.364;15.550;2023-05-10T14:37:40;3.40;;;2.80;;
20251;SDS011;10284;58.364;15.550;2023-05-10T14:40:05;6.57;;;2.70;;
20251;SDS011;10284;58.364;15.550;2023-05-10T14:42:31;3.75;;;2.45;;
20251;SDS011;10284;58.364;15.550;2023-05-10T14:44:57;4.57;;;2.65;;
20251;SDS011;10284;58.364;15.550;2023-05-10T14:47:22;3.22;;;2.50;;
20251;SDS011;10284;58.364;15.550;2023-05-10T14:49:47;9.10;;;3.60;;
20251;SDS011;10284;58.364;15.550;2023-05-10T14:52:13;4.90;;;2.63;;
20251;SDS011;10284;58.364;15.550;2023-05-10T14:54:39;4.40;;;2.78;;
20251;SDS011;10284;58.364;15.550;2023-05-10T14:57:05;6.25;;;3.03;;
20251;SDS011;10284;58.364;15.550;2023-05-10T14:59:31;7.90;;;3.08;;
20251;SDS011;10284;58.364;15.550;2023-05-10T15:01:57;3.47;;;3.03;;
20251;SDS011;10284;58.364;15.550;2023-05-10T15:04:22;3.75;;;2.58;;